AirNav   Air Wisconsin pilot careers
 
 692 users online  

KVLL Oakland/Troy Airport
Troy, Michigan, USA

GOING TO TROY?


FAA INFORMATION EFFECTIVE 08 NOVEMBER 2018

Location

FAA Identifier: VLL
Lat/Long: 42-32-34.6000N / 083-10-40.4000W
42-32.576667N / 083-10.673333W
42.5429444 / -83.1778889
(estimated)
Elevation: 727.2 ft. / 221.7 m (surveyed)
Variation: 06W (1995)
From city: 2 miles E of TROY, MI
Time zone: UTC -5 (UTC -4 during Daylight Saving Time)
Zip code: 48084

Airport Operations

Airport use: Open to the public
Control tower: no
ARTCC: CLEVELAND CENTER
FSS: LANSING FLIGHT SERVICE STATION
NOTAMs facility: VLL (NOTAM-D service available)
Attendance: 0800-1800
Pattern altitude: 1727.2 ft. MSL
Wind indicator: lighted
Segmented circle: no
Lights: ACTVT MIRL RY 09/27 & PAPI RYS 09 & 27 - CTAF.
Beacon: white-green (lighted land airport)
Operates sunset to sunrise.
Landing fee: yes

Airport Communications

CTAF/UNICOM: 123.05
WX AWOS-3: 119.475 (248-288-4649)
DETROIT APPROACH: 134.3
DETROIT DEPARTURE: 134.3
BARII DP: 134.3
CCOBB DP: 134.3
CLVIN DP: 134.3
HHOWE DP: 134.3
KAYLN DP: 134.3
LIDDS DP: 134.3
MIGGY DP: 134.3
PAVYL DP: 134.3
SNDRS DP: 134.3
TRMML DP: 134.3
ZETTR DP: 134.3
WX ASOS at DET (11 nm SE): PHONE 313-371-9696
WX ASOS at PTK (13 nm NW): 125.025 (248-886-8551)

Nearby radio navigation aids

VOR radial/distance  VOR name  Freq  Var
SVMr069/20.1SALEM VORTAC114.3003W
DXOr029/21.5DETROIT VOR/DME113.4006W
YQGr325/23.4WINDSOR VOR/DME113.8006W
CRLr026/32.2CARLETON VOR/DME115.7003W
FNTr141/35.7FLINT VORTAC116.9006W

 
NDB name  Hdg/Dist  Freq  Var  ID
GROSSE ILE005/26.541907WRYS .-. -.-- ...

Airport Services

Fuel available: 100LL JET-A
Parking: tiedowns
Airframe service: NONE
Powerplant service: NONE

Runway Information

Runway 9/27

Dimensions: 3549 x 60 ft. / 1082 x 18 m
Surface: asphalt, in fair condition
Runway edge lights: medium intensity
RUNWAY 9  RUNWAY 27
Latitude: 42-32.575973N42-32.578848N
Longitude: 083-11.068925W083-10.278788W
Elevation: 727.0 ft.701.0 ft.
Gradient: 0.7% DOWN0.7% UP
Traffic pattern: leftleft
Runway heading: 096 magnetic, 090 true276 magnetic, 270 true
Markings: nonprecision, in good conditionnonprecision, in good condition
Visual slope indicator: 2-light PAPI on right (3.75 degrees glide path)2-light PAPI on left (3.75 degrees glide path)
Runway end identifier lights: nono
Touchdown point: yes, no lightsyes, no lights
Obstructions: 19 ft. trees, 542 ft. from runway, 18:1 slope to clear17 ft. bldg, lighted, 540 ft. from runway, 20:1 slope to clear

Airport Ownership and Management from official FAA records

Ownership: Publicly-owned
Owner: OAKLAND COUNTY
6500 HIGHLAND ROAD
WATERFORD, MI 48327
Phone (248) 288-6100
ARPT PHONE 248-666-3900
Manager: CHERYL BUSH
6500 HIGHLAND RD
WATERFORD, MI 48327
Phone 248-666-3900

Airport Operational Statistics

Aircraft based on the field: 115
Single engine airplanes: 104
Multi engine airplanes: 7
Helicopters: 3
Ultralights: 1
    
Aircraft operations: avg 82/day *
50% transient general aviation
50% local general aviation
* for 12-month period ending 31 December 2014

Additional Remarks

DEER AND BIRDS ON & INVOF ARPT.
RY 09 +3 FT BERM 316 FT FM THLD.
NO TGL OR PRACTICE TFC PATTERNS.
FOR CD CTC DETROIT APCH AT 800-499-8181.

Instrument Procedures

NOTE: All procedures below are presented as PDF files. If you need a reader for these files, you should download the free Adobe Reader.

NOT FOR NAVIGATION. Please procure official charts for flight.
FAA instrument procedures published for use from 8 November 2018 at 0901Z to 6 December 2018 at 0900Z.

 
STARs - Standard Terminal Arrivals
CRUXX SIX   download (248KB)
FOREY ONE (RNAV)   download (151KB)
LLEEO TWO   download (321KB)
OKLND ONE (RNAV)   download (130KB)
PETTE ONE (RNAV)   download (153KB)
RRALF ONE (RNAV)   download (141KB)
 
IAPs - Instrument Approach Procedures
RNAV (GPS) RWY 09   download (163KB)
 
Departure Procedures
BARII ONE (RNAV)   download (140KB)
CCOBB ONE (RNAV)   download (165KB)
CLVIN ONE (RNAV)   download (149KB)
HHOWE ONE (RNAV)   download (155KB)
KAYLN ONE (RNAV)   download (159KB)
LIDDS ONE (RNAV)   download (159KB)
MIGGY ONE (RNAV)   download (170KB)
PAVYL ONE (RNAV)   download (158KB)
SNDRS ONE (RNAV)   download (172KB)
TRMML ONE (RNAV)   download (140KB)
ZETTR ONE (RNAV)   download (176KB)
NOTE: Special Take-Off Minimums/Departure Procedures apply   download (125KB)

Other nearby airports with instrument procedures:

KDET - Coleman A Young Municipal Airport (11 nm SE)
KPTK - Oakland County International Airport (13 nm NW)
KMTC - Selfridge Air National Guard Base (16 nm E)
1D2 - Canton-Plymouth-Mettetal Airport (17 nm SW)
57D - Ray Community Airport (17 nm NE)
D98 - Romeo State Airport (18 nm NE)
Y47 - Oakland Southwest Airport (20 nm W)
 
Loc | Ops | Rwys | IFR | FBO | Links
Com | Nav | Svcs | Stats | Notes


 
Area around KVLL (Oakland/Troy Airport)
 
Road maps at: MapQuest Bing Google
 
Aerial photo
WARNING: Photo may not be current or correct
Aerial photo of KVLL (Oakland/Troy Airport)
Photo by Jeff Schuster
Photo taken 29-Jun-2014
looking west.

Do you have a better or more recent aerial photo of Oakland/Troy Airport that you would like to share? If so, please send us your photo.

 
Sectional chart

 
Airport distance calculator
Flying to Oakland/Troy Airport? Find the distance to fly.

From to KVLL

Sunrise and sunset
Times for 18-Nov-2018
 Local
(UTC-5)
 Zulu
(UTC)
Morning civil twilight06:5811:58
Sunrise07:2912:29
Sunset17:0722:07
Evening civil twilight17:3822:38

Current date and time
Zulu (UTC)  19-Nov-2018 04:30:44
Local (UTC-5)  18-Nov-2018 23:30:44
 
METAR
KVLL 190415Z AUTO 22004KT 5SM BR SCT025 M01/M02 A3017 RMK AO2 T10081022
KDET 
11nm SE 
190353Z 23005KT 6SM BR SCT033 M01/M02 A3016 RMK AO2 SLP221 T10061017
KPTK 
13nm NW 
190411Z 25003KT 7SM SCT019 M02/M02 A3013 RMK AO2 T10171022
KMTC 
17nm E 
190355Z 22004KT 10SM FEW031 M02/M02 A3014 RMK AO2A SLP218 T10231023 $
CYQG 
19nm SE 
190400Z AUTO 25005KT 3SM BR SCT034 M02/M03 A3016 RMK SLP224
KDTW 
20nm S 
190353Z 24005KT 6SM BR FEW035 00/M02 A3016 RMK AO2 SLP222 I1000 T00001022
TAF
KDET 
11nm SE 
182131Z 1822/1918 30004KT P6SM SCT018 OVC025 FM190000 28004KT P6SM SCT022 BKN035 FM190300 28004KT P6SM SCT025 FM190900 28004KT P6SM BKN028 FM191500 24006KT P6SM SCT035
KPTK 
13nm NW 
182132Z 1822/1918 28004KT P6SM SCT020 BKN035 FM190300 28004KT P6SM SCT025 FM190900 28004KT P6SM BKN028 FM191500 24006KT P6SM SCT035
KMTC 
17nm E 
190100Z 1901/2007 VRB06KT 9999 OVC025 620254 QNH3012INS BECMG 1908/1909 26006KT 9999 BKN015 BKN160 620151 QNH3006INS BECMG 1915/1916 22009KT 9999 BKN020 BKN160 620201 QNH3000INS BECMG 2005/2006 30006KT 8000 -SN OVC015 620159 QNH2996INS TX02/1921Z TNM02/1911Z LAST NO AMDS AFT 1904 NEXT 1909
CYQG 
19nm SE 
190050Z 1900/1924 VRB03KT P6SM OVC030 TEMPO 1900/1904 4SM BR OVC020 FM190400 VRB03KT P6SM SCT020 FM190900 26005KT P6SM FEW020 SCT240 BECMG 1913/1915 22006KT FM191600 22007KT P6SM BKN015 OVC180 RMK FCST BASED ON AUTO OBS. NXT FCST BY 190600Z
KDTW 
20nm S 
182130Z 1822/1924 00000KT P6SM SCT018 OVC025 FM190000 28004KT P6SM SCT022 BKN035 FM190300 28004KT P6SM SCT025 FM190900 28004KT P6SM BKN028 FM191500 24006KT P6SM SCT035
NOTAMs
Click for the latest NOTAMs
NOTAMs are issued by the DoD/FAA and will open in a separate window not controlled by AirNav.

 

 
 

FBO, Fuel Providers, and Aircraft Ground Support

  
 Business Name 
 
 Contact 
 
 Services / Description 
 
Fuel Prices
 
Comments
  
JDS Pump-N-Go 248-288-6100
[email]
Aviation fuel, Aircraft parking (ramp or tiedown), Hangar leasing / sales

More info about JDS Pump-N-Go
Avfuel
100LL Jet A
SS $5.10 $4.70 
 Updated 05-Nov-2018
 
   write
24HRFUEL.com 248-655-1474
no information available

If you are affiliated with 24HRFUEL.com and would like to show here your services, contact info, web link, logo, and more, click here
100LL Jet A
SS $5.20 $3.49 
 Updated 05-Nov-2018
 
   2 read write
SS=Self service
Update Fuel Prices
 

Would you like to see your business listed on this page?

 If your business provides an interesting product or service to pilots, flight crews, aircraft, or users of the Oakland/Troy Airport, you should consider listing it here.  To start the listing process, click on the button below
 
Add a business
 

Other Pages about Oakland/Troy Airport

Oakland/Troy Airport Website
Page from the Michigan Airport Directory (PDF)
 
Update a link
 
Copyright © AirNav, LLC. All rights reserved. Privacy Policy  Contact